Time;durP1;ratioP1;P1;durP2;ratioP2;P2;SDS_P1;SDS_P2;PMS_P1;PMS_P2;Temp;Humidity;BMP_temperature;BMP_pressure;BME280_temperature;BME280_humidity;BME280_pressure;Samples;Min_cycle;Max_cycle;Signal;HPM_P1;HPM_P2
2024/01/27 04:02:28;;;;;;;2.10;0.90;;;21.90;30.80;;;;;;5117492;23;46442;-85
2024/01/27 04:04:54;;;;;;;3.22;0.80;;;21.90;30.80;;;;;;5008615;28;44998;-82
2024/01/27 04:07:19;;;;;;;2.78;0.80;;;21.90;30.80;;;;;;4961767;28;45583;-84
2024/01/27 04:09:46;;;;;;;2.85;0.77;;;21.90;30.80;;;;;;4967735;28;45293;-82
2024/01/27 04:12:11;;;;;;;2.20;0.80;;;21.90;30.80;;;;;;4978080;28;45272;-81
2024/01/27 04:14:37;;;;;;;1.65;0.57;;;21.90;30.80;;;;;;4980123;28;45263;-84
2024/01/27 04:17:03;;;;;;;1.95;0.70;;;21.90;30.80;;;;;;4960698;28;45938;-83
2024/01/27 04:19:28;;;;;;;3.15;0.73;;;21.90;30.80;;;;;;4968183;28;45481;-81
2024/01/27 04:21:55;;;;;;;1.70;0.77;;;21.90;30.80;;;;;;4977728;28;45891;-82
2024/01/27 04:24:20;;;;;;;1.83;0.80;;;21.90;30.80;;;;;;4978214;28;45388;-82
2024/01/27 04:26:46;;;;;;;1.13;0.50;;;21.90;30.80;;;;;;4962697;28;45682;-82
2024/01/27 04:29:14;;;;;;;1.52;0.70;;;21.80;30.70;;;;;;4962220;28;44906;-82
2024/01/27 04:31:41;;;;;;;2.08;0.90;;;21.80;30.70;;;;;;4956999;28;48080;-81
2024/01/27 04:34:07;;;;;;;2.47;0.80;;;21.80;30.70;;;;;;4977431;28;45262;-82
2024/01/27 04:36:33;;;;;;;1.73;0.70;;;21.80;30.70;;;;;;4967123;28;45350;-82
2024/01/27 04:38:59;;;;;;;1.73;0.68;;;21.80;30.70;;;;;;4994953;28;45629;-84
2024/01/27 04:41:24;;;;;;;1.85;0.90;;;21.80;30.70;;;;;;5003991;28;45461;-84
2024/01/27 04:43:52;;;;;;;2.63;0.60;;;21.80;30.70;;;;;;4991793;28;45418;-81
2024/01/27 04:46:18;;;;;;;1.70;0.70;;;21.80;30.70;;;;;;4981553;28;45220;-82
2024/01/27 04:48:44;;;;;;;2.15;0.82;;;21.80;30.70;;;;;;4967640;28;44938;-82
2024/01/27 04:51:10;;;;;;;1.73;0.70;;;21.80;30.70;;;;;;4972153;28;46644;-81
2024/01/27 04:53:36;;;;;;;1.33;0.70;;;21.80;30.70;;;;;;4989671;28;45468;-83
2024/01/27 04:56:01;;;;;;;2.80;1.05;;;21.80;30.70;;;;;;4987863;28;45141;-82
2024/01/27 04:58:27;;;;;;;2.33;0.90;;;21.70;30.60;;;;;;4974469;28;45062;-82
2024/01/27 05:00:53;;;;;;;2.88;0.80;;;21.80;30.70;;;;;;4986200;28;45974;-82
2024/01/27 05:03:19;;;;;;;1.73;0.70;;;21.70;30.60;;;;;;4987755;28;45081;-82
2024/01/27 05:05:45;;;;;;;2.75;0.70;;;21.70;30.70;;;;;;4985334;28;45107;-83
2024/01/27 05:08:11;;;;;;;1.95;0.60;;;21.70;30.60;;;;;;4992412;28;45080;-83
2024/01/27 05:10:36;;;;;;;2.85;0.82;;;21.70;30.70;;;;;;4962350;28;46869;-84
2024/01/27 05:13:03;;;;;;;0.88;0.63;;;21.70;30.70;;;;;;4977818;28;44683;-82
2024/01/27 05:15:28;;;;;;;2.10;0.80;;;21.70;30.70;;;;;;4986509;28;45483;-83
2024/01/27 05:17:58;;;;;;;1.20;0.60;;;21.70;30.60;;;;;;4965954;28;45386;-82
2024/01/27 05:20:30;;;;;;;2.55;0.90;;;21.70;30.60;;;;;;4969616;28;46178;-83
2024/01/27 05:22:55;;;;;;;2.33;0.90;;;21.70;30.70;;;;;;4993378;28;45329;-83
2024/01/27 05:25:22;;;;;;;2.00;0.90;;;21.70;30.60;;;;;;4997947;28;45244;-84
2024/01/27 05:27:48;;;;;;;1.80;0.80;;;21.60;30.60;;;;;;4977993;28;45212;-81
2024/01/27 05:30:17;;;;;;;2.35;0.90;;;21.70;30.60;;;;;;4973579;28;45609;-86
2024/01/27 05:32:43;;;;;;;3.10;1.10;;;21.70;30.60;;;;;;4973765;28;45194;-82
2024/01/27 05:35:12;;;;;;;2.97;1.10;;;21.70;30.60;;;;;;4964246;28;45079;-83
2024/01/27 05:37:39;;;;;;;1.75;0.85;;;21.60;30.60;;;;;;4962669;28;45469;-84
2024/01/27 05:40:09;;;;;;;3.78;1.00;;;21.60;30.50;;;;;;4968126;28;46278;-83
2024/01/27 05:42:40;;;;;;;5.72;1.42;;;21.60;30.50;;;;;;4964409;28;46159;-84
2024/01/27 05:45:15;;;;;;;2.65;1.02;;;21.60;30.50;;;;;;4970055;28;45228;-83
2024/01/27 05:47:41;;;;;;;3.53;1.15;;;21.60;30.50;;;;;;4976019;28;45434;-82
2024/01/27 05:50:09;;;;;;;3.72;1.52;;;21.50;30.50;;;;;;4973155;28;46454;-84
2024/01/27 05:52:35;;;;;;;3.05;1.67;;;21.60;30.50;;;;;;4985995;28;45690;-82
2024/01/27 05:55:06;;;;;;;4.57;1.67;;;21.50;30.50;;;;;;4979449;28;45706;-83
2024/01/27 05:57:35;;;;;;;3.60;1.70;;;21.50;30.50;;;;;;4991380;28;45680;-82
2024/01/27 06:00:01;;;;;;;3.35;2.05;;;21.60;30.50;;;;;;4973076;28;45602;-82
2024/01/27 06:02:27;;;;;;;8.88;2.95;;;21.60;30.50;;;;;;4965749;28;45495;-82
2024/01/27 06:04:55;;;;;;;4.88;2.50;;;21.50;30.50;;;;;;4970146;28;45278;-85
2024/01/27 06:07:20;;;;;;;5.47;3.10;;;21.50;30.40;;;;;;4973726;28;45112;-82
2024/01/27 06:09:46;;;;;;;8.20;3.30;;;21.50;30.40;;;;;;4975394;28;47096;-82
2024/01/27 06:12:12;;;;;;;6.90;3.40;;;21.50;30.40;;;;;;4957258;28;45289;-81
2024/01/27 06:14:38;;;;;;;8.43;4.25;;;21.50;30.40;;;;;;4987707;28;45422;-84
2024/01/27 06:17:06;;;;;;;9.43;4.25;;;21.50;30.40;;;;;;4978787;28;45946;-83
2024/01/27 06:19:32;;;;;;;9.35;4.60;;;21.50;30.40;;;;;;4970133;28;45909;-82
2024/01/27 06:21:57;;;;;;;8.15;4.57;;;21.40;30.40;;;;;;4963595;28;44863;-82
2024/01/27 06:24:24;;;;;;;7.53;4.57;;;21.40;30.50;;;;;;4966320;28;45024;-83
2024/01/27 06:26:49;;;;;;;8.25;4.93;;;21.40;30.40;;;;;;4965877;28;45865;-83
2024/01/27 06:29:15;;;;;;;9.32;5.38;;;21.40;30.40;;;;;;4967815;28;45993;-82
2024/01/27 06:31:46;;;;;;;10.75;5.72;;;21.40;30.40;;;;;;4958609;28;45496;-82
2024/01/27 06:34:12;;;;;;;11.68;5.90;;;21.40;30.40;;;;;;4987906;28;45224;-82
2024/01/27 06:36:38;;;;;;;8.13;5.40;;;21.40;30.40;;;;;;4988469;28;44993;-83
2024/01/27 06:39:04;;;;;;;9.55;5.68;;;21.40;30.40;;;;;;4981613;28;45957;-82
2024/01/27 06:41:29;;;;;;;8.35;5.40;;;21.40;30.30;;;;;;4988840;28;45225;-84
2024/01/27 06:43:55;;;;;;;9.98;5.55;;;21.40;30.30;;;;;;4982263;28;45262;-82
2024/01/27 06:46:21;;;;;;;11.35;5.82;;;21.40;30.40;;;;;;5002316;28;45279;-83
2024/01/27 06:48:47;;;;;;;11.70;6.35;;;21.30;30.40;;;;;;4978077;28;46054;-82
2024/01/27 06:51:13;;;;;;;10.68;5.32;;;21.30;30.30;;;;;;4973635;28;45268;-83
2024/01/27 06:53:38;;;;;;;11.77;5.82;;;21.30;30.30;;;;;;4983308;28;44999;-82
2024/01/27 06:56:04;;;;;;;9.07;5.10;;;21.40;30.30;;;;;;4975860;28;45418;-83
2024/01/27 06:58:31;;;;;;;9.73;5.43;;;21.30;30.30;;;;;;4980606;28;46353;-83
2024/01/27 07:00:57;;;;;;;8.90;5.20;;;21.30;30.30;;;;;;4997461;28;44845;-82
2024/01/27 07:03:23;;;;;;;8.60;5.38;;;21.30;30.30;;;;;;4998885;28;45254;-82
2024/01/27 07:05:49;;;;;;;8.68;4.93;;;21.30;30.30;;;;;;5006793;28;45466;-82
2024/01/27 07:08:16;;;;;;;9.45;4.32;;;21.30;30.20;;;;;;4981786;28;45666;-82
2024/01/27 07:10:42;;;;;;;8.65;4.72;;;21.30;30.20;;;;;;4976514;28;45125;-82
2024/01/27 07:13:08;;;;;;;10.85;4.70;;;21.30;30.20;;;;;;4970245;28;44939;-82
2024/01/27 07:15:38;;;;;;;7.63;4.20;;;21.30;30.30;;;;;;4994053;28;46126;-82
2024/01/27 07:18:05;;;;;;;6.93;4.18;;;21.30;30.20;;;;;;4977878;28;46368;-82
2024/01/27 07:20:31;;;;;;;8.32;4.25;;;21.20;30.20;;;;;;4971576;28;45180;-83
2024/01/27 07:22:57;;;;;;;7.00;4.25;;;21.20;30.20;;;;;;4963701;28;45378;-82
2024/01/27 07:25:22;;;;;;;7.47;3.83;;;21.20;30.20;;;;;;4979675;28;45578;-82
2024/01/27 07:27:48;;;;;;;8.40;4.15;;;21.20;30.20;;;;;;4977850;28;45941;-81
2024/01/27 07:30:17;;;;;;;8.00;4.35;;;21.20;30.30;;;;;;4980881;28;45336;-82
2024/01/27 07:32:44;;;;;;;7.07;4.53;;;21.20;30.20;;;;;;4996278;28;45370;-82
2024/01/27 07:35:10;;;;;;;6.93;4.55;;;21.20;30.30;;;;;;4978565;28;45057;-83
2024/01/27 07:37:43;;;;;;;7.35;4.57;;;21.20;30.30;;;;;;4986788;28;47232;-82
2024/01/27 07:40:11;;;;;;;8.43;4.70;;;21.10;30.20;;;;;;5007523;28;45974;-82
2024/01/27 07:42:37;;;;;;;7.25;4.50;;;21.10;30.30;;;;;;4977745;28;45456;-84
2024/01/27 07:45:09;;;;;;;7.82;4.40;;;21.10;30.80;;;;;;4979908;28;45019;-90
2024/01/27 07:47:34;;;;;;;7.68;3.80;;;21.10;30.10;;;;;;4957384;28;47207;-86
2024/01/27 07:50:00;;;;;;;6.60;3.92;;;21.10;30.10;;;;;;4968276;28;45385;-82
2024/01/27 07:52:26;;;;;;;8.48;3.75;;;21.10;30.10;;;;;;4974508;28;44910;-82
2024/01/27 07:54:51;;;;;;;7.55;4.03;;;21.00;30.10;;;;;;4967479;28;45224;-82
2024/01/27 07:57:17;;;;;;;5.18;3.13;;;21.10;30.10;;;;;;4979753;28;45350;-82
2024/01/27 07:59:43;;;;;;;4.53;2.65;;;21.00;30.00;;;;;;4972281;28;45210;-83
2024/01/27 08:02:10;;;;;;;4.80;3.03;;;21.00;30.00;;;;;;4981307;28;44860;-83
2024/01/27 08:04:35;;;;;;;6.07;3.25;;;21.00;30.00;;;;;;4987998;28;45509;-84
2024/01/27 08:07:06;;;;;;;5.78;2.75;;;21.00;30.00;;;;;;4974457;28;46456;-82
2024/01/27 08:09:31;;;;;;;4.13;2.53;;;21.00;30.00;;;;;;4981845;28;44873;-83
2024/01/27 08:11:57;;;;;;;5.13;2.60;;;21.10;30.00;;;;;;4976617;28;45470;-82
2024/01/27 08:14:23;;;;;;;4.85;3.00;;;21.10;30.00;;;;;;4976484;28;44684;-82
2024/01/27 08:16:49;;;;;;;7.18;2.80;;;21.10;30.00;;;;;;4986708;28;46282;-84
2024/01/27 08:19:19;;;;;;;4.82;2.50;;;21.10;30.00;;;;;;4976960;28;45279;-83
2024/01/27 08:21:46;;;;;;;5.35;1.98;;;21.10;30.00;;;;;;4962454;28;45235;-83
2024/01/27 08:24:12;;;;;;;3.97;2.00;;;21.10;29.90;;;;;;4967112;28;45524;-83
2024/01/27 08:26:38;;;;;;;4.82;2.35;;;21.10;29.90;;;;;;4964061;28;48285;-82
2024/01/27 08:29:04;;;;;;;4.00;2.65;;;21.10;29.90;;;;;;4995666;28;44971;-82
2024/01/27 08:31:29;;;;;;;3.08;1.92;;;21.20;29.90;;;;;;4970963;28;44741;-82
2024/01/27 08:33:55;;;;;;;3.92;1.95;;;21.20;29.90;;;;;;4967138;28;45335;-83
2024/01/27 08:36:21;;;;;;;3.88;1.83;;;21.20;29.80;;;;;;4991674;28;45410;-82
2024/01/27 08:38:47;;;;;;;3.33;1.90;;;21.20;29.80;;;;;;4976916;28;44750;-83
2024/01/27 08:41:13;;;;;;;4.97;2.40;;;21.20;29.80;;;;;;4985831;28;45082;-83
2024/01/27 08:43:38;;;;;;;3.88;1.73;;;21.20;29.80;;;;;;4985958;28;46074;-85
2024/01/27 08:46:04;;;;;;;3.20;1.88;;;21.30;30.30;;;;;;4976710;28;47060;-82
2024/01/27 08:48:29;;;;;;;2.92;2.10;;;21.30;29.80;;;;;;4978318;28;45076;-82
2024/01/27 08:50:55;;;;;;;3.47;1.90;;;21.30;29.80;;;;;;4976123;28;45205;-82
2024/01/27 08:53:20;;;;;;;4.60;2.15;;;21.40;29.80;;;;;;4960199;28;44744;-82
2024/01/27 08:55:46;;;;;;;6.45;2.40;;;21.30;29.70;;;;;;4961334;28;45357;-82
2024/01/27 08:58:13;;;;;;;4.57;2.00;;;21.40;29.80;;;;;;5005690;28;44931;-83
2024/01/27 09:00:38;;;;;;;4.72;2.15;;;21.40;29.70;;;;;;4986799;28;45709;-84
2024/01/27 09:03:05;;;;;;;6.10;2.20;;;21.40;29.80;;;;;;4962717;28;45089;-83
2024/01/27 09:05:31;;;;;;;4.65;2.00;;;21.40;29.80;;;;;;4964541;28;46381;-82
2024/01/27 09:07:57;;;;;;;5.50;2.20;;;21.40;29.70;;;;;;4978372;28;45225;-83
2024/01/27 09:10:23;;;;;;;3.65;1.85;;;21.50;29.70;;;;;;4997835;28;45362;-83
2024/01/27 09:12:48;;;;;;;3.28;1.83;;;21.50;29.70;;;;;;4968246;28;45259;-82
2024/01/27 09:15:14;;;;;;;2.53;1.70;;;21.50;29.70;;;;;;4993937;28;46223;-82
2024/01/27 09:17:42;;;;;;;4.15;1.75;;;21.50;29.60;;;;;;5004865;28;44967;-82
2024/01/27 09:20:32;;;;;;;3.42;2.03;;;21.50;29.60;;;;;;4993250;28;45345;-82
2024/01/27 09:22:58;;;;;;;3.85;2.00;;;21.60;29.50;;;;;;4978085;28;46339;-82
2024/01/27 09:25:24;;;;;;;4.47;1.67;;;21.60;29.60;;;;;;4993098;28;46542;-82
2024/01/27 09:27:50;;;;;;;2.88;1.83;;;21.70;29.60;;;;;;4981185;28;45825;-84
2024/01/27 09:30:16;;;;;;;4.47;1.88;;;21.70;29.60;;;;;;4967458;28;45229;-83
2024/01/27 09:32:42;;;;;;;4.07;1.90;;;21.70;29.60;;;;;;4984971;28;44765;-82
2024/01/27 09:35:08;;;;;;;4.72;2.00;;;21.80;29.60;;;;;;4993322;28;45369;-82
2024/01/27 09:37:33;;;;;;;5.50;1.90;;;21.80;29.50;;;;;;4977681;28;45223;-83
2024/01/27 09:40:01;;;;;;;2.75;1.70;;;21.80;29.50;;;;;;4973052;28;44679;-85
2024/01/27 09:42:26;;;;;;;3.75;1.75;;;21.80;29.50;;;;;;4974101;28;45386;-82
2024/01/27 09:44:52;;;;;;;6.25;1.60;;;21.80;29.40;;;;;;4971596;28;46327;-82
2024/01/27 09:47:17;;;;;;;3.53;1.65;;;21.90;29.50;;;;;;4964861;28;44689;-82
2024/01/27 09:49:43;;;;;;;3.08;1.77;;;21.90;29.40;;;;;;4988448;28;45276;-83
2024/01/27 09:52:10;;;;;;;3.10;1.98;;;22.00;29.40;;;;;;4984014;28;45292;-82
2024/01/27 09:54:36;;;;;;;3.92;1.75;;;22.00;29.40;;;;;;4968574;28;47402;-83
2024/01/27 09:57:02;;;;;;;4.45;1.58;;;22.00;29.40;;;;;;4977299;28;44724;-83
2024/01/27 09:59:28;;;;;;;5.03;1.73;;;22.10;29.40;;;;;;4963766;28;44945;-83
2024/01/27 10:01:53;;;;;;;4.47;1.50;;;22.10;29.40;;;;;;4984698;28;44704;-83
2024/01/27 10:04:20;;;;;;;6.00;2.00;;;22.10;29.30;;;;;;4989725;28;46343;-83
2024/01/27 10:06:47;;;;;;;5.65;1.80;;;22.20;29.40;;;;;;4974465;28;45854;-82
2024/01/27 10:09:13;;;;;;;6.15;1.77;;;22.20;29.40;;;;;;4998849;28;45591;-83
2024/01/27 10:11:41;;;;;;;3.97;1.80;;;22.10;29.30;;;;;;4972240;28;44880;-83
2024/01/27 10:14:07;;;;;;;4.10;1.48;;;22.20;29.30;;;;;;4997976;28;46051;-83
2024/01/27 10:16:43;;;;;;;4.93;1.70;;;22.20;29.30;;;;;;4973237;28;45287;-83
2024/01/27 10:19:34;;;;;;;3.95;1.60;;;22.20;29.30;;;;;;4979997;28;45436;-82
2024/01/27 10:22:00;;;;;;;4.93;1.63;;;22.30;29.30;;;;;;4992961;28;45454;-83
2024/01/27 10:24:26;;;;;;;4.70;1.40;;;22.30;29.30;;;;;;5001303;28;45284;-83
2024/01/27 10:27:00;;;;;;;3.70;1.65;;;22.30;29.20;;;;;;4970846;28;45644;-85
2024/01/27 10:29:26;;;;;;;5.30;1.60;;;22.40;29.20;;;;;;4968608;28;45248;-82
2024/01/27 10:31:52;;;;;;;3.85;1.65;;;22.50;29.20;;;;;;4966033;28;45295;-82
2024/01/27 10:34:21;;;;;;;3.83;1.65;;;22.40;29.20;;;;;;4992647;28;45519;-83
2024/01/27 10:36:48;;;;;;;3.83;1.45;;;22.50;29.10;;;;;;5002301;28;44753;-82
2024/01/27 10:39:20;;;;;;;3.55;1.58;;;22.50;29.10;;;;;;5005239;28;45231;-82
2024/01/27 10:41:46;;;;;;;4.17;1.53;;;22.50;29.10;;;;;;4991947;28;45414;-82
2024/01/27 10:44:16;;;;;;;4.22;1.58;;;22.60;29.10;;;;;;4975348;28;46294;-83
2024/01/27 10:46:46;;;;;;;4.13;1.10;;;22.60;29.00;;;;;;4989396;28;45328;-82
2024/01/27 10:49:14;;;;;;;3.10;1.17;;;22.60;29.00;;;;;;4987461;28;45291;-82
2024/01/27 10:51:46;;;;;;;3.35;1.50;;;22.60;29.00;;;;;;5008745;28;45329;-83
2024/01/27 10:54:21;;;;;;;3.30;1.35;;;22.70;29.00;;;;;;4990943;28;46132;-82
2024/01/27 10:56:48;;;;;;;3.45;1.42;;;22.70;28.90;;;;;;4999935;28;45276;-83
2024/01/27 10:59:14;;;;;;;3.85;1.58;;;22.70;29.30;;;;;;4994152;28;45446;-84
2024/01/27 11:01:42;;;;;;;4.07;1.30;;;22.80;29.00;;;;;;4958324;28;46224;-83
2024/01/27 11:04:10;;;;;;;2.85;1.20;;;22.80;29.00;;;;;;4988979;28;45364;-83
2024/01/27 11:06:36;;;;;;;4.50;1.58;;;22.80;29.00;;;;;;4970956;28;45366;-83
2024/01/27 11:09:03;;;;;;;2.38;1.08;;;22.80;29.00;;;;;;4978632;28;44941;-81
2024/01/27 11:11:29;;;;;;;2.40;0.90;;;22.80;29.00;;;;;;4949413;28;46570;-81
2024/01/27 11:13:55;;;;;;;3.33;1.35;;;22.80;29.00;;;;;;4979621;28;46187;-82
2024/01/27 11:16:21;;;;;;;4.05;1.33;;;22.80;28.90;;;;;;4980613;28;45373;-82
2024/01/27 11:18:48;;;;;;;3.67;1.23;;;22.80;28.90;;;;;;4979029;28;45356;-82
2024/01/27 11:21:20;;;;;;;2.67;1.23;;;22.90;28.90;;;;;;4954877;28;45287;-82
2024/01/27 11:23:47;;;;;;;2.87;1.10;;;22.90;28.80;;;;;;4986778;28;46236;-83
2024/01/27 11:26:22;;;;;;;3.28;1.08;;;22.90;28.90;;;;;;4959743;28;45252;-83
2024/01/27 11:28:51;;;;;;;2.47;1.13;;;23.00;28.90;;;;;;4980119;28;44875;-82
2024/01/27 11:31:21;;;;;;;3.28;1.27;;;23.00;28.90;;;;;;4977591;28;45153;-82
2024/01/27 11:33:52;;;;;;;2.90;1.20;;;23.00;28.90;;;;;;4989027;28;45958;-82
2024/01/27 11:36:21;;;;;;;3.10;1.40;;;23.00;28.90;;;;;;4965524;28;45422;-82
2024/01/27 11:38:47;;;;;;;2.90;1.00;;;23.00;28.90;;;;;;4995885;28;45293;-82
2024/01/27 11:41:12;;;;;;;3.25;1.50;;;23.00;28.90;;;;;;4960398;28;44849;-81
2024/01/27 11:43:38;;;;;;;3.22;1.10;;;23.00;28.80;;;;;;4995908;28;45324;-82
2024/01/27 11:46:04;;;;;;;2.30;0.93;;;23.00;28.80;;;;;;4992331;28;45104;-83
2024/01/27 11:48:36;;;;;;;3.85;1.33;;;23.10;28.80;;;;;;4990549;28;44824;-84
2024/01/27 11:51:05;;;;;;;2.63;1.03;;;23.10;28.80;;;;;;4979601;28;45811;-85
2024/01/27 11:53:31;;;;;;;2.63;0.80;;;23.10;28.80;;;;;;4977420;28;47513;-84
2024/01/27 11:55:57;;;;;;;2.78;1.10;;;23.10;28.80;;;;;;4976034;28;45446;-84
2024/01/27 11:58:23;;;;;;;3.50;1.27;;;23.10;28.80;;;;;;4965204;28;44877;-84
2024/01/27 12:00:48;;;;;;;2.03;0.90;;;23.10;28.80;;;;;;4977566;28;44771;-85
2024/01/27 12:03:14;;;;;;;2.72;0.88;;;23.10;28.80;;;;;;4974309;28;46283;-86
2024/01/27 12:05:40;;;;;;;1.92;0.98;;;23.10;28.80;;;;;;4961060;28;45252;-84
2024/01/27 12:08:08;;;;;;;3.05;0.90;;;23.10;28.80;;;;;;4956995;28;44709;-83
2024/01/27 12:10:33;;;;;;;4.15;1.13;;;23.10;28.70;;;;;;4973784;28;45175;-84
2024/01/27 12:13:01;;;;;;;2.03;0.80;;;23.10;28.80;;;;;;4987320;28;45953;-84
2024/01/27 12:15:29;;;;;;;4.38;1.63;;;23.20;28.80;;;;;;4971065;28;64137;-86
2024/01/27 12:17:55;;;;;;;2.65;0.90;;;23.20;28.80;;;;;;4982435;28;46030;-84
2024/01/27 12:20:22;;;;;;;2.22;1.10;;;23.20;28.80;;;;;;4994643;28;46189;-85
2024/01/27 12:22:50;;;;;;;2.70;1.10;;;23.20;28.80;;;;;;4964924;28;45247;-85
2024/01/27 12:25:16;;;;;;;1.92;0.88;;;23.20;28.70;;;;;;4943857;28;45413;-84
2024/01/27 12:27:42;;;;;;;2.92;1.00;;;23.20;28.80;;;;;;4974177;28;45426;-85
2024/01/27 12:30:13;;;;;;;2.22;0.75;;;23.20;28.70;;;;;;4961371;28;45670;-85
2024/01/27 12:32:39;;;;;;;2.38;0.85;;;23.20;28.70;;;;;;4965310;28;46429;-86
2024/01/27 12:35:09;;;;;;;1.52;0.90;;;23.20;28.70;;;;;;4960363;28;45200;-85
2024/01/27 12:37:35;;;;;;;3.47;0.90;;;23.20;28.70;;;;;;4963979;28;45458;-84
2024/01/27 12:40:00;;;;;;;2.00;0.98;;;23.30;28.80;;;;;;4961816;28;45830;-84
2024/01/27 12:42:27;;;;;;;2.95;1.08;;;23.20;28.70;;;;;;4966154;28;46905;-85
2024/01/27 12:44:53;;;;;;;3.13;1.02;;;23.20;28.70;;;;;;4945769;28;45255;-84
2024/01/27 12:47:19;;;;;;;3.88;1.15;;;23.20;28.70;;;;;;4963583;28;44914;-85
2024/01/27 12:49:45;;;;;;;3.35;1.10;;;23.20;28.70;;;;;;5009382;28;45301;-83
2024/01/27 12:52:11;;;;;;;3.42;1.10;;;23.20;28.70;;;;;;4961415;28;46603;-85
2024/01/27 12:54:38;;;;;;;3.30;1.10;;;23.30;28.70;;;;;;4961918;28;44925;-84
2024/01/27 12:57:07;;;;;;;3.38;1.08;;;23.30;28.70;;;;;;4962010;28;45331;-82
2024/01/27 12:59:32;;;;;;;2.65;0.75;;;23.30;28.70;;;;;;4979507;28;45224;-82
2024/01/27 13:01:59;;;;;;;1.85;0.88;;;23.30;28.70;;;;;;4968810;28;45758;-83
2024/01/27 13:04:24;;;;;;;2.05;0.75;;;23.30;28.80;;;;;;4983598;28;48208;-82
2024/01/27 13:06:51;;;;;;;3.05;0.93;;;23.30;28.70;;;;;;4988031;28;45429;-83
2024/01/27 13:09:16;;;;;;;2.83;1.02;;;23.30;28.70;;;;;;4981487;28;45292;-83
2024/01/27 13:11:44;;;;;;;1.85;0.90;;;23.30;28.70;;;;;;4959710;28;47067;-82
2024/01/27 13:14:12;;;;;;;2.17;0.80;;;23.30;28.70;;;;;;4991879;28;45681;-83
2024/01/27 13:16:38;;;;;;;2.03;0.93;;;23.30;28.70;;;;;;4973562;28;45159;-82
2024/01/27 13:19:05;;;;;;;3.67;1.30;;;23.30;28.70;;;;;;4973288;28;45271;-83
2024/01/27 13:21:31;;;;;;;3.10;1.05;;;23.30;28.70;;;;;;4970153;28;46005;-83
2024/01/27 13:23:57;;;;;;;3.80;0.93;;;23.30;28.70;;;;;;4974131;28;45427;-85
2024/01/27 13:26:23;;;;;;;2.08;0.90;;;23.30;28.70;;;;;;4977177;28;45207;-82
2024/01/27 13:28:49;;;;;;;3.28;0.85;;;23.30;28.70;;;;;;4981165;28;44984;-84
2024/01/27 13:31:16;;;;;;;2.65;0.80;;;23.30;28.70;;;;;;4971733;28;45276;-83
2024/01/27 13:33:42;;;;;;;3.03;1.20;;;23.30;28.80;;;;;;4958302;28;45127;-83
2024/01/27 13:36:08;;;;;;;1.55;0.80;;;23.30;28.70;;;;;;4973016;28;45242;-83
2024/01/27 13:38:35;;;;;;;3.28;1.00;;;23.30;28.70;;;;;;4972897;28;46177;-84
2024/01/27 13:41:01;;;;;;;3.15;1.17;;;23.30;28.70;;;;;;4959511;28;46391;-83
2024/01/27 13:43:27;;;;;;;3.40;0.98;;;23.30;28.70;;;;;;4959190;28;45171;-84
2024/01/27 13:45:54;;;;;;;3.08;0.88;;;23.30;28.70;;;;;;4987953;28;44987;-83
2024/01/27 13:48:20;;;;;;;3.50;0.95;;;23.30;28.70;;;;;;4976576;28;45371;-84
2024/01/27 13:50:46;;;;;;;3.75;1.00;;;23.30;28.70;;;;;;4990382;28;45750;-83
2024/01/27 13:53:15;;;;;;;2.90;1.00;;;23.30;28.70;;;;;;4964097;28;44921;-85
2024/01/27 13:55:43;;;;;;;2.55;0.95;;;23.30;28.70;;;;;;4985989;28;45323;-83
2024/01/27 13:58:10;;;;;;;1.92;0.70;;;23.30;28.70;;;;;;4967838;28;45174;-83
2024/01/27 14:00:36;;;;;;;2.47;0.90;;;23.30;28.70;;;;;;4952363;28;47320;-84
2024/01/27 14:03:02;;;;;;;1.80;0.90;;;23.30;28.70;;;;;;4974703;28;45397;-84
2024/01/27 14:05:27;;;;;;;2.70;0.80;;;23.30;28.70;;;;;;4964319;28;44975;-84
2024/01/27 14:07:53;;;;;;;2.55;0.90;;;23.30;28.70;;;;;;4977077;28;45596;-83
2024/01/27 14:10:19;;;;;;;1.98;0.82;;;23.30;28.70;;;;;;4999516;28;46214;-85
2024/01/27 14:12:45;;;;;;;2.65;0.77;;;23.30;28.70;;;;;;4963647;28;45588;-85
2024/01/27 14:15:11;;;;;;;3.92;1.30;;;23.30;28.70;;;;;;4990790;28;44843;-83
2024/01/27 14:17:38;;;;;;;3.08;1.17;;;23.30;28.70;;;;;;4968742;28;45060;-85
2024/01/27 14:20:14;;;;;;;3.90;0.70;;;23.30;28.70;;;;;;4961026;28;46226;-85
2024/01/27 14:22:40;;;;;;;2.50;0.80;;;23.30;28.60;;;;;;4961985;28;45240;-82
2024/01/27 14:25:07;;;;;;;2.63;0.88;;;23.30;28.70;;;;;;4983644;28;45244;-86
2024/01/27 14:27:34;;;;;;;4.68;1.00;;;23.30;28.70;;;;;;4978545;28;45524;-83
2024/01/27 14:30:00;;;;;;;3.67;0.90;;;23.30;28.70;;;;;;4989973;28;47824;-83
2024/01/27 14:32:27;;;;;;;3.25;0.70;;;23.30;28.70;;;;;;4976119;28;45415;-83
2024/01/27 14:34:53;;;;;;;3.05;1.10;;;23.30;28.70;;;;;;4968436;28;46162;-83
2024/01/27 14:37:22;;;;;;;2.60;0.85;;;23.30;28.70;;;;;;4978216;28;45864;-84
2024/01/27 14:39:48;;;;;;;1.90;0.88;;;23.30;28.70;;;;;;4963542;28;45764;-83
2024/01/27 14:42:14;;;;;;;3.60;1.02;;;23.30;28.70;;;;;;4982231;28;45252;-84
2024/01/27 14:44:40;;;;;;;3.95;1.20;;;23.30;28.60;;;;;;4951482;28;44931;-82
2024/01/27 14:47:06;;;;;;;3.13;1.00;;;23.30;28.70;;;;;;4985844;28;45491;-83
2024/01/27 14:49:32;;;;;;;4.55;1.20;;;23.30;28.60;;;;;;4974510;28;47052;-83
2024/01/27 14:51:57;;;;;;;2.95;0.80;;;23.30;28.60;;;;;;4949170;28;45867;-84
2024/01/27 14:54:23;;;;;;;2.38;1.00;;;23.30;28.60;;;;;;4975853;28;45251;-83
2024/01/27 14:56:49;;;;;;;2.85;0.95;;;23.30;28.60;;;;;;4961559;28;45427;-83
2024/01/27 14:59:15;;;;;;;2.78;0.90;;;23.30;28.60;;;;;;4974886;28;45229;-84
2024/01/27 15:01:41;;;;;;;2.67;0.95;;;23.30;28.60;;;;;;4967423;28;44723;-83
2024/01/27 15:04:07;;;;;;;2.85;0.77;;;23.30;28.60;;;;;;4943473;28;45206;-84
2024/01/27 15:06:33;;;;;;;2.88;0.98;;;23.30;28.60;;;;;;4939255;28;45455;-84
2024/01/27 15:08:59;;;;;;;2.40;0.88;;;23.30;28.60;;;;;;4988956;28;45349;-83
2024/01/27 15:11:25;;;;;;;2.50;0.93;;;23.30;28.60;;;;;;4971904;28;44897;-84
2024/01/27 15:13:51;;;;;;;2.65;0.90;;;23.30;28.60;;;;;;4978505;28;44690;-84
2024/01/27 15:16:17;;;;;;;1.25;0.80;;;23.20;28.50;;;;;;4956839;28;45445;-83
2024/01/27 15:18:44;;;;;;;2.80;0.82;;;23.30;28.60;;;;;;4958366;28;46429;-83
2024/01/27 15:21:11;;;;;;;2.92;1.08;;;23.20;28.50;;;;;;4976448;28;45114;-83
2024/01/27 15:23:37;;;;;;;3.25;1.00;;;23.20;28.50;;;;;;4968367;28;45516;-84
2024/01/27 15:26:05;;;;;;;3.08;1.10;;;23.20;28.50;;;;;;4967597;28;45515;-83
2024/01/27 15:28:31;;;;;;;2.08;0.85;;;23.20;28.50;;;;;;4987785;28;46144;-83
2024/01/27 15:30:58;;;;;;;4.45;1.00;;;23.20;29.00;;;;;;4940152;28;45347;-85
2024/01/27 15:33:23;;;;;;;3.78;0.95;;;23.20;28.50;;;;;;4987947;28;45317;-84
2024/01/27 15:35:50;;;;;;;2.50;1.00;;;23.20;28.50;;;;;;4956345;28;45245;-83
2024/01/27 15:38:16;;;;;;;1.90;0.65;;;23.20;28.50;;;;;;4996901;28;45407;-85
2024/01/27 15:40:42;;;;;;;1.75;0.90;;;23.20;28.50;;;;;;4951585;28;45321;-83
2024/01/27 15:43:08;;;;;;;1.75;0.70;;;23.20;28.50;;;;;;4974816;28;45551;-84
2024/01/27 15:45:33;;;;;;;1.70;0.85;;;23.20;28.50;;;;;;4954158;28;45595;-83
2024/01/27 15:47:59;;;;;;;1.70;0.77;;;23.20;28.50;;;;;;4953166;28;45953;-83
2024/01/27 15:50:30;;;;;;;2.25;0.70;;;23.20;28.50;;;;;;4957053;28;45765;-85
2024/01/27 15:52:57;;;;;;;2.05;1.10;;;23.20;28.50;;;;;;4972267;28;45066;-83
2024/01/27 15:55:25;;;;;;;4.47;1.25;;;23.20;28.50;;;;;;4970794;28;44747;-84
2024/01/27 15:57:51;;;;;;;3.28;0.70;;;23.20;28.50;;;;;;4973390;28;46031;-84
2024/01/27 16:00:18;;;;;;;2.35;0.88;;;23.20;28.50;;;;;;4968153;28;45257;-85
2024/01/27 16:02:45;;;;;;;3.40;0.85;;;23.20;28.50;;;;;;4973054;28;45651;-85
2024/01/27 16:05:14;;;;;;;2.22;0.80;;;23.20;28.50;;;;;;4963216;28;45704;-84
2024/01/27 16:07:41;;;;;;;4.07;1.17;;;23.10;28.50;;;;;;4990458;28;47269;-84
2024/01/27 16:10:07;;;;;;;3.33;0.90;;;23.20;28.50;;;;;;4990580;28;45193;-87
2024/01/27 16:12:34;;;;;;;2.33;0.90;;;23.10;28.50;;;;;;4990570;28;45346;-84
2024/01/27 16:14:59;;;;;;;2.92;1.10;;;23.10;28.50;;;;;;4979766;28;44869;-86
2024/01/27 16:17:28;;;;;;;3.05;1.05;;;23.10;28.50;;;;;;4970349;28;45658;-84
2024/01/27 16:19:54;;;;;;;2.03;0.80;;;23.10;28.50;;;;;;4952118;28;45602;-83
2024/01/27 16:22:22;;;;;;;2.03;1.00;;;23.10;28.50;;;;;;4969691;28;45097;-84
2024/01/27 16:24:50;;;;;;;2.50;0.95;;;23.10;28.50;;;;;;4980789;28;44892;-84
2024/01/27 16:27:21;;;;;;;1.77;0.82;;;23.10;28.50;;;;;;5002495;28;45299;-83
2024/01/27 16:29:48;;;;;;;4.30;0.80;;;23.10;28.50;;;;;;4961931;28;45258;-83
2024/01/27 16:32:17;;;;;;;2.33;0.70;;;23.10;28.50;;;;;;4978743;28;45384;-83
2024/01/27 16:34:43;;;;;;;1.60;0.82;;;23.10;28.50;;;;;;4959566;28;45001;-85
2024/01/27 16:37:09;;;;;;;1.55;0.85;;;23.10;28.40;;;;;;4960491;28;46131;-84
2024/01/27 16:39:35;;;;;;;3.40;1.00;;;23.10;28.50;;;;;;4968446;28;45284;-84
2024/01/27 16:42:03;;;;;;;3.55;0.90;;;23.00;28.40;;;;;;4956938;28;45313;-83
2024/01/27 16:44:31;;;;;;;3.35;1.30;;;23.10;28.50;;;;;;4973564;28;46575;-83